Time;durP1;ratioP1;P1;durP2;ratioP2;P2;SDS_P1;SDS_P2;PMS_P1;PMS_P2;Temp;Humidity;BMP_temperature;BMP_pressure;BME280_temperature;BME280_humidity;BME280_pressure;Samples;Min_cycle;Max_cycle;Signal;HPM_P1;HPM_P2
2023/12/02 00:00:08;;;;;;;0.20;0.20;;;;;;;17.58;52.82;75738.00;6310102;22;20408;-79
2023/12/02 00:02:34;;;;;;;0.20;0.20;;;;;;;17.62;52.77;75742.78;6310215;22;20334;-80
2023/12/02 00:05:00;;;;;;;0.20;0.20;;;;;;;17.57;52.85;75736.78;6282492;22;20021;-80
2023/12/02 00:07:26;;;;;;;0.20;0.20;;;;;;;17.52;53.14;75727.97;6310176;22;20010;-80
2023/12/02 00:09:51;;;;;;;0.20;0.20;;;;;;;17.68;53.12;75747.19;6309941;22;20019;-81
2023/12/02 00:12:16;;;;;;;0.20;0.20;;;;;;;17.71;52.76;75756.38;6282343;22;20037;-80
2023/12/02 00:14:43;;;;;;;0.20;0.20;;;;;;;17.84;51.97;75770.81;6282253;22;19999;-79
2023/12/02 00:17:09;;;;;;;0.20;0.20;;;;;;;17.99;52.50;75786.63;6282127;22;20007;-80
2023/12/02 00:19:34;;;;;;;0.20;0.20;;;;;;;17.80;53.63;75764.41;6308694;22;20010;-79
2023/12/02 00:21:59;;;;;;;0.20;0.20;;;;;;;17.94;55.34;75782.81;6281215;22;20012;-80
2023/12/02 00:24:25;;;;;;;0.20;0.20;;;;;;;17.80;56.59;75764.41;6277123;22;20110;-79
2023/12/02 00:26:50;;;;;;;0.20;0.20;;;;;;;17.67;58.19;75748.78;6251284;22;20003;-79
2023/12/02 00:29:16;;;;;;;0.20;0.20;;;;;;;17.78;59.24;75761.41;6277983;22;20339;-79
2023/12/02 00:31:41;;;;;;;0.20;0.20;;;;;;;17.75;59.78;75758.41;6250536;22;20023;-80
2023/12/02 00:34:07;;;;;;;0.20;0.20;;;;;;;17.66;60.22;75746.97;6250865;22;20062;-80
2023/12/02 00:36:35;;;;;;;0.20;0.20;;;;;;;17.79;60.55;75762.63;6277235;22;20012;-79
2023/12/02 00:39:01;;;;;;;0.20;0.20;;;;;;;17.76;61.55;75759.59;6250863;22;20026;-81
2023/12/02 00:41:26;;;;;;;0.20;0.20;;;;;;;17.69;61.46;75751.19;6278153;22;20432;-79
2023/12/02 00:43:51;;;;;;;0.20;0.20;;;;;;;17.59;62.20;75739.19;6278339;22;20003;-80
2023/12/02 00:46:20;;;;;;;0.20;0.20;;;;;;;17.67;62.40;75754.38;6251704;22;20335;-80
2023/12/02 00:48:45;;;;;;;0.20;0.20;;;;;;;17.68;62.92;75749.38;6278514;22;20007;-79
2023/12/02 00:51:11;;;;;;;0.20;0.20;;;;;;;17.66;63.76;75750.38;6278189;22;20087;-79
2023/12/02 00:53:36;;;;;;;0.20;0.20;;;;;;;17.56;64.25;75735.56;6251547;22;20006;-80
2023/12/02 00:56:02;;;;;;;0.20;0.20;;;;;;;17.64;64.95;75744.59;6278795;22;20000;-79
2023/12/02 00:58:27;;;;;;;0.20;0.20;;;;;;;17.58;65.48;75738.00;6278515;22;20386;-80
2023/12/02 01:00:52;;;;;;;0.20;0.20;;;;;;;17.65;65.97;75743.59;6250594;22;20011;-79
2023/12/02 01:03:18;;;;;;;0.20;0.20;;;;;;;17.58;67.11;75738.00;6278830;22;20533;-79
2023/12/02 01:05:43;;;;;;;0.20;0.20;;;;;;;17.58;67.61;75740.16;6278141;22;20312;-80
2023/12/02 01:08:09;;;;;;;0.20;0.20;;;;;;;17.66;67.55;75747.59;6277485;22;20007;-79
2023/12/02 01:10:34;;;;;;;0.20;0.20;;;;;;;17.63;67.53;75746.16;6250558;22;20053;-79
2023/12/02 01:12:59;;;;;;;0.20;0.20;;;;;;;17.64;67.51;75750.78;6250700;22;20053;-79
2023/12/02 01:15:25;;;;;;;0.20;0.20;;;;;;;17.73;68.42;75758.78;6251052;22;20035;-80
2023/12/02 01:17:50;;;;;;;0.20;0.20;;;;;;;17.67;68.56;75748.78;6251493;22;20003;-81
2023/12/02 01:20:16;;;;;;;0.20;0.20;;;;;;;17.68;69.59;75749.97;6251195;22;19999;-80
2023/12/02 01:22:41;;;;;;;0.20;0.20;;;;;;;17.60;70.06;75740.38;6250640;22;20018;-80
2023/12/02 01:25:07;;;;;;;0.20;0.20;;;;;;;17.57;70.98;75736.78;6250804;22;20018;-80
2023/12/02 01:27:35;;;;;;;0.20;0.20;;;;;;;17.52;70.80;75734.19;6278326;22;20014;-80
2023/12/02 01:30:00;;;;;;;0.20;0.20;;;;;;;17.51;72.18;75729.56;6277649;22;20065;-79
2023/12/02 01:32:26;;;;;;;0.20;0.20;;;;;;;17.52;72.95;75734.19;6276334;22;20420;-79
2023/12/02 01:34:52;;;;;;;0.20;0.20;;;;;;;17.55;72.88;75734.38;6250785;22;20003;-79
2023/12/02 01:37:18;;;;;;;0.20;0.20;;;;;;;17.51;72.75;75730.16;6278463;22;20003;-80
2023/12/02 01:39:43;;;;;;;0.20;0.20;;;;;;;17.54;73.02;75730.38;6277623;22;20010;-79
2023/12/02 01:42:08;;;;;;;0.20;0.20;;;;;;;17.53;73.49;75732.59;6276326;22;20031;-79
2023/12/02 01:44:34;;;;;;;0.20;0.20;;;;;;;17.63;71.69;75749.59;6275431;22;20003;-79
2023/12/02 01:46:59;;;;;;;0.20;0.20;;;;;;;17.64;71.38;75745.19;6249878;22;20094;-79
2023/12/02 01:49:27;;;;;;;0.20;0.20;;;;;;;17.52;72.49;75733.56;6277140;22;20313;-79
2023/12/02 01:51:53;;;;;;;0.20;0.20;;;;;;;17.59;73.47;75736.38;6276674;22;19996;-79
2023/12/02 01:54:19;;;;;;;0.20;0.20;;;;;;;17.59;73.93;75738.59;6276833;22;19999;-80
2023/12/02 01:56:46;;;;;;;0.20;0.20;;;;;;;17.57;74.62;75736.78;6276917;22;20034;-79
2023/12/02 01:59:12;;;;;;;0.20;0.20;;;;;;;17.55;75.23;75734.38;6249526;22;20004;-79
2023/12/02 02:01:37;;;;;;;0.20;0.20;;;;;;;17.51;76.61;75735.16;6277340;22;20062;-79
2023/12/02 02:04:03;;;;;;;0.20;0.20;;;;;;;17.45;77.38;75722.38;6249551;22;20036;-79
2023/12/02 02:06:28;;;;;;;0.20;0.20;;;;;;;17.42;77.23;75722.19;6249229;22;20445;-79
2023/12/02 02:08:54;;;;;;;0.20;0.20;;;;;;;17.49;77.11;75733.38;6276770;22;20008;-79
2023/12/02 02:11:19;;;;;;;0.20;0.20;;;;;;;17.40;78.06;75719.16;6276732;22;20014;-80
2023/12/02 02:13:44;;;;;;;0.20;0.20;;;;;;;17.51;77.75;75729.56;6249568;22;20066;-79
2023/12/02 02:16:11;;;;;;;0.20;0.20;;;;;;;17.42;78.38;75718.78;6276983;22;20037;-80
2023/12/02 02:18:37;;;;;;;0.20;0.20;;;;;;;17.52;78.64;75734.19;6250212;22;20004;-79
2023/12/02 02:21:02;;;;;;;0.20;0.20;;;;;;;17.57;78.43;75739.56;6274510;22;20011;-80
2023/12/02 02:23:28;;;;;;;0.20;0.20;;;;;;;17.46;78.79;75723.56;6249734;22;20487;-80
2023/12/02 02:25:54;;;;;;;0.20;0.20;;;;;;;17.36;79.93;75711.56;6276719;22;20000;-80
2023/12/02 02:28:22;;;;;;;0.20;0.20;;;;;;;17.35;79.68;75713.16;6276872;22;20007;-80
2023/12/02 02:30:47;;;;;;;0.20;0.20;;;;;;;17.43;78.72;75725.56;6275205;22;20022;-79
2023/12/02 02:33:13;;;;;;;0.20;0.20;;;;;;;17.24;78.65;75700.56;6275725;22;19999;-80
2023/12/02 02:35:38;;;;;;;0.20;0.20;;;;;;;17.28;78.83;75703.19;6277800;22;20035;-80
2023/12/02 02:38:04;;;;;;;0.20;0.20;;;;;;;17.40;79.50;75719.16;6277303;22;20002;-79
2023/12/02 02:40:29;;;;;;;0.20;0.20;;;;;;;17.37;79.42;75718.38;6277246;22;20014;-80
2023/12/02 02:42:55;;;;;;;0.20;0.20;;;;;;;17.44;79.06;75726.78;6250089;22;20086;-80
2023/12/02 02:45:22;;;;;;;0.20;0.20;;;;;;;17.40;79.10;75716.38;6249944;22;20108;-80
2023/12/02 02:47:48;;;;;;;0.20;0.20;;;;;;;17.39;79.28;75721.38;6249892;22;20012;-81
2023/12/02 02:50:13;;;;;;;0.20;0.20;;;;;;;17.47;79.31;75724.75;6277505;22;20423;-80
2023/12/02 02:52:39;;;;;;;0.20;0.20;;;;;;;17.46;79.29;75732.56;6249092;22;20000;-80
2023/12/02 02:55:04;;;;;;;0.20;0.20;;;;;;;17.50;79.13;75731.16;6277392;22;20031;-80
2023/12/02 02:57:30;;;;;;;0.20;0.20;;;;;;;17.56;76.47;75738.38;6250807;22;20331;-80
2023/12/02 02:59:55;;;;;;;0.20;0.20;;;;;;;17.54;76.14;75733.19;6276965;22;20010;-80
2023/12/02 03:02:23;;;;;;;0.20;0.20;;;;;;;17.50;76.58;75731.16;6250362;22;20024;-80
2023/12/02 03:04:48;;;;;;;0.20;0.20;;;;;;;17.40;77.89;75716.38;6249952;22;20004;-80
2023/12/02 03:07:14;;;;;;;0.20;0.20;;;;;;;17.38;78.18;75716.78;6276876;22;20011;-80
2023/12/02 03:09:39;;;;;;;0.20;0.20;;;;;;;17.32;77.48;75706.78;6250284;22;20042;-80
2023/12/02 03:12:05;;;;;;;0.20;0.20;;;;;;;17.21;77.71;75694.78;6249776;22;20450;-80
2023/12/02 03:14:31;;;;;;;0.20;0.20;;;;;;;17.12;78.18;75686.16;6277205;22;20130;-80
2023/12/02 03:16:56;;;;;;;0.20;0.20;;;;;;;17.03;78.51;75678.75;6277394;22;20023;-80
2023/12/02 03:19:21;;;;;;;0.20;0.20;;;;;;;17.01;78.96;75670.78;6277455;22;20050;-79
2023/12/02 03:21:47;;;;;;;0.20;0.20;;;;;;;16.90;79.69;75660.97;6245303;23;20104;-80
2023/12/02 03:24:12;;;;;;;0.20;0.20;;;;;;;16.82;79.49;75650.78;6272231;22;20019;-79
2023/12/02 03:26:38;;;;;;;0.20;0.20;;;;;;;16.75;79.81;75640.78;6271183;22;20501;-79
2023/12/02 03:29:04;;;;;;;0.20;0.20;;;;;;;16.82;79.50;75647.97;6220439;23;20019;-80
2023/12/02 03:31:29;;;;;;;0.20;0.20;;;;;;;16.86;79.42;75658.38;6253741;22;20460;-80
2023/12/02 03:33:57;;;;;;;0.20;0.20;;;;;;;16.88;79.60;75660.75;6247526;23;20012;-80
2023/12/02 03:36:23;;;;;;;0.20;0.20;;;;;;;16.76;79.23;75641.97;6248922;22;20011;-80
2023/12/02 03:38:48;;;;;;;0.20;0.20;;;;;;;16.69;80.55;75639.16;6221154;23;20024;-79
2023/12/02 03:41:17;;;;;;;0.20;0.20;;;;;;;16.64;80.86;75635.34;6221413;23;20011;-80
2023/12/02 03:43:42;;;;;;;0.20;0.20;;;;;;;16.68;82.39;75632.38;6245776;23;20011;-80
2023/12/02 03:46:08;;;;;;;0.20;0.20;;;;;;;16.84;83.50;75650.38;6221125;23;20012;-80
2023/12/02 03:48:33;;;;;;;0.20;0.20;;;;;;;16.85;84.65;75652.19;6246499;23;20466;-80
2023/12/02 03:50:58;;;;;;;0.20;0.20;;;;;;;16.98;83.89;75672.75;6248503;23;20011;-80
2023/12/02 03:53:25;;;;;;;0.20;0.20;;;;;;;17.08;82.72;75684.75;6248283;23;20024;-80
2023/12/02 03:55:51;;;;;;;0.20;0.20;;;;;;;17.11;81.07;75684.97;6220809;23;20018;-80
2023/12/02 03:58:16;;;;;;;0.20;0.20;;;;;;;17.22;80.36;75695.38;6247143;23;20087;-80
2023/12/02 04:00:42;;;;;;;0.20;0.20;;;;;;;17.31;80.35;75708.38;6247565;23;20076;-80
2023/12/02 04:03:08;;;;;;;0.20;0.20;;;;;;;17.32;79.99;75707.38;6248260;23;20470;-80
2023/12/02 04:05:34;;;;;;;0.20;0.20;;;;;;;17.40;78.95;75716.97;6248449;23;20446;-80
2023/12/02 04:07:59;;;;;;;0.20;0.20;;;;;;;17.50;78.50;75731.78;6221523;23;20180;-80
2023/12/02 04:10:24;;;;;;;0.20;0.20;;;;;;;17.54;76.86;75733.78;6246106;23;20361;-80
2023/12/02 04:12:50;;;;;;;0.20;0.20;;;;;;;17.45;76.83;75725.16;6246300;23;20079;-80
2023/12/02 04:15:15;;;;;;;0.20;0.20;;;;;;;17.41;76.17;75717.56;6247503;23;20078;-80
2023/12/02 04:17:41;;;;;;;0.20;0.20;;;;;;;17.38;76.54;75713.97;6247638;23;20000;-80
2023/12/02 04:20:11;;;;;;;0.20;0.20;;;;;;;17.39;76.95;75715.19;6221195;22;20123;-79
2023/12/02 04:22:38;;;;;;;0.20;0.20;;;;;;;17.38;77.04;75720.16;6245921;23;20344;-80
2023/12/02 04:25:04;;;;;;;0.20;0.20;;;;;;;17.22;77.44;75695.38;6246625;23;20403;-80
2023/12/02 04:27:30;;;;;;;0.20;0.20;;;;;;;17.15;75.61;75686.97;6246461;23;20008;-80
2023/12/02 04:29:55;;;;;;;0.20;0.20;;;;;;;17.21;75.27;75697.56;6221661;23;20038;-80
2023/12/02 04:32:21;;;;;;;0.30;0.30;;;;;;;17.32;76.70;75706.78;6247732;23;20083;-80
2023/12/02 04:34:46;;;;;;;0.20;0.20;;;;;;;17.22;78.06;75698.78;6246417;23;20024;-80
2023/12/02 04:37:13;;;;;;;0.20;0.20;;;;;;;17.01;80.84;75665.78;6222316;23;20448;-80
2023/12/02 04:39:38;;;;;;;0.20;0.20;;;;;;;16.92;81.08;75659.97;6247771;23;20388;-80
2023/12/02 04:42:04;;;;;;;0.20;0.20;;;;;;;16.73;82.26;75643.97;6222236;23;20034;-80
2023/12/02 04:44:30;;;;;;;0.20;0.20;;;;;;;16.63;83.30;75628.56;6248698;23;20088;-80
2023/12/02 04:46:55;;;;;;;0.20;0.20;;;;;;;16.49;84.03;75612.97;6247757;23;20279;-80
2023/12/02 04:49:21;;;;;;;0.20;0.20;;;;;;;16.49;83.76;75615.16;6220023;23;20008;-80
2023/12/02 04:51:46;;;;;;;0.20;0.20;;;;;;;16.43;84.56;75602.38;6247767;23;20008;-80
2023/12/02 04:54:12;;;;;;;0.20;0.20;;;;;;;16.37;84.72;75603.56;6219807;23;20522;-79
2023/12/02 04:56:37;;;;;;;0.20;0.20;;;;;;;16.20;84.52;75576.00;6245604;23;20019;-80
2023/12/02 04:59:06;;;;;;;0.20;0.20;;;;;;;16.31;84.76;75588.59;6247150;23;20007;-80
2023/12/02 05:01:32;;;;;;;0.20;0.20;;;;;;;16.21;85.40;75576.59;6245624;23;20389;-80
2023/12/02 05:03:58;;;;;;;0.20;0.20;;;;;;;16.32;85.33;75594.78;6247428;23;20011;-80
2023/12/02 05:06:23;;;;;;;0.20;0.20;;;;;;;16.44;84.94;75606.38;6247744;23;20032;-80
2023/12/02 05:08:49;;;;;;;0.30;0.30;;;;;;;16.47;84.56;75610.56;6246799;23;20012;-80
2023/12/02 05:11:20;;;;;;;0.20;0.20;;;;;;;16.36;85.60;75599.56;6246371;23;20034;-80
2023/12/02 05:13:46;;;;;;;0.20;0.20;;;;;;;16.57;85.77;75621.97;6246537;23;20327;-80
2023/12/02 05:16:12;;;;;;;0.20;0.20;;;;;;;16.46;87.18;75609.38;6219894;23;20004;-80
2023/12/02 05:18:41;;;;;;;0.20;0.20;;;;;;;16.32;87.93;75591.97;6247257;23;20103;-80
2023/12/02 05:21:09;;;;;;;0.20;0.20;;;;;;;16.25;89.03;75586.97;6246132;22;20015;-80
2023/12/02 05:23:35;;;;;;;0.20;0.20;;;;;;;15.88;90.47;75546.00;6246911;23;20367;-80
2023/12/02 05:26:01;;;;;;;0.20;0.20;;;;;;;15.94;90.87;75548.22;6245181;23;20053;-80
2023/12/02 05:28:27;;;;;;;0.20;0.20;;;;;;;15.94;91.10;75547.59;6247307;23;20008;-80
2023/12/02 05:30:52;;;;;;;0.20;0.20;;;;;;;16.00;92.00;75557.00;6246585;23;20141;-80
2023/12/02 05:33:18;;;;;;;0.20;0.20;;;;;;;16.05;92.45;75563.59;6245268;23;20015;-80
2023/12/02 05:35:43;;;;;;;0.20;0.20;;;;;;;16.01;94.30;75549.81;6247862;23;20364;-79
2023/12/02 05:38:09;;;;;;;0.20;0.20;;;;;;;15.94;96.07;75544.81;6247282;23;20011;-80
2023/12/02 05:40:34;;;;;;;0.20;0.20;;;;;;;15.82;96.80;75533.22;6246911;23;20058;-80
2023/12/02 05:43:00;;;;;;;0.20;0.20;;;;;;;15.86;96.69;75535.81;6246774;23;20034;-80
2023/12/02 05:45:26;;;;;;;0.20;0.20;;;;;;;15.66;97.21;75515.25;6220617;23;20014;-79
2023/12/02 05:47:51;;;;;;;0.20;0.20;;;;;;;15.75;97.21;75522.03;6219865;23;20017;-80
2023/12/02 05:50:18;;;;;;;0.20;0.20;;;;;;;15.74;98.41;75527.00;6247089;23;20499;-80
2023/12/02 05:52:43;;;;;;;0.20;0.20;;;;;;;15.73;99.27;75522.44;6247150;23;20004;-80
2023/12/02 05:55:09;;;;;;;0.20;0.20;;;;;;;15.77;99.15;75524.44;6247853;23;20069;-80
2023/12/02 05:57:35;;;;;;;0.20;0.20;;;;;;;15.77;98.49;75530.03;6247784;23;20008;-80
2023/12/02 06:00:01;;;;;;;0.20;0.20;;;;;;;15.57;97.81;75501.63;6247438;23;20431;-80
2023/12/02 06:02:26;;;;;;;0.28;0.28;;;;;;;15.65;98.17;75516.81;6246439;23;20007;-80
2023/12/02 06:04:52;;;;;;;0.20;0.20;;;;;;;15.56;95.71;75506.00;6246110;23;20032;-80
2023/12/02 06:07:20;;;;;;;0.20;0.20;;;;;;;15.54;96.16;75498.03;6246601;23;20026;-80
2023/12/02 06:09:45;;;;;;;0.20;0.20;;;;;;;15.68;95.08;75520.41;6246507;23;20028;-80
2023/12/02 06:12:11;;;;;;;0.20;0.20;;;;;;;15.64;94.19;75515.63;6246484;23;20011;-80
2023/12/02 06:14:37;;;;;;;0.20;0.20;;;;;;;15.59;93.67;75509.00;6247270;23;20004;-80
2023/12/02 06:17:03;;;;;;;0.20;0.20;;;;;;;15.54;93.31;75500.81;6246730;23;20478;-80
2023/12/02 06:19:29;;;;;;;0.20;0.20;;;;;;;15.56;93.36;75503.22;6245057;22;20046;-80
2023/12/02 06:21:54;;;;;;;0.20;0.20;;;;;;;15.85;93.27;75540.19;6245840;22;20066;-80
2023/12/02 06:24:19;;;;;;;0.20;0.20;;;;;;;15.66;94.61;75511.84;6246252;23;20012;-80
2023/12/02 06:26:45;;;;;;;0.20;0.20;;;;;;;15.62;95.34;75513.22;6246383;23;20432;-80
2023/12/02 06:29:11;;;;;;;0.20;0.20;;;;;;;15.56;95.89;75503.22;6246666;23;20014;-80
2023/12/02 06:31:37;;;;;;;0.20;0.20;;;;;;;15.65;96.75;75508.44;6245964;23;20004;-80
2023/12/02 06:34:04;;;;;;;0.20;0.20;;;;;;;15.65;96.80;75514.03;6246441;23;20030;-79
2023/12/02 06:36:29;;;;;;;0.20;0.20;;;;;;;15.57;96.90;75507.22;6246436;23;20011;-80
2023/12/02 06:38:55;;;;;;;0.20;0.20;;;;;;;15.73;96.50;75525.22;6245602;23;20046;-80
2023/12/02 06:41:20;;;;;;;0.20;0.20;;;;;;;15.83;94.70;75534.41;6219026;23;20007;-80
2023/12/02 06:43:48;;;;;;;0.20;0.20;;;;;;;15.68;94.72;75517.63;6244969;23;20050;-80
2023/12/02 06:46:21;;;;;;;0.20;0.20;;;;;;;15.86;91.26;75535.81;6244770;23;20004;-80
2023/12/02 06:48:47;;;;;;;0.20;0.20;;;;;;;15.86;91.00;75535.22;6219441;23;20579;-80
2023/12/02 06:51:12;;;;;;;0.20;0.20;;;;;;;16.11;89.86;75567.38;6247491;23;20001;-80
2023/12/02 06:53:38;;;;;;;0.20;0.20;;;;;;;16.11;89.54;75568.00;6246145;23;20007;-80
2023/12/02 06:56:03;;;;;;;0.20;0.20;;;;;;;16.43;89.08;75602.38;6244039;23;20056;-80
2023/12/02 06:58:29;;;;;;;0.20;0.20;;;;;;;16.46;90.94;75611.56;6245300;23;20011;-80
2023/12/02 07:00:55;;;;;;;0.20;0.20;;;;;;;16.62;92.04;75625.19;6245445;23;20000;-80
2023/12/02 07:03:20;;;;;;;0.20;0.20;;;;;;;16.65;93.38;75631.56;6245160;23;20069;-80
2023/12/02 07:05:46;;;;;;;0.20;0.20;;;;;;;16.73;94.61;75643.97;6245170;23;20420;-80
2023/12/02 07:08:11;;;;;;;0.20;0.20;;;;;;;16.75;95.21;75645.78;6245989;23;20082;-80
2023/12/02 07:10:37;;;;;;;0.20;0.20;;;;;;;16.73;94.89;75641.19;6245363;23;20011;-80
2023/12/02 07:13:03;;;;;;;0.20;0.20;;;;;;;16.84;94.65;75653.78;6244185;23;20000;-80
2023/12/02 07:15:30;;;;;;;0.20;0.20;;;;;;;17.00;94.57;75672.97;6243652;23;20058;-80
2023/12/02 07:17:55;;;;;;;0.20;0.20;;;;;;;16.86;93.82;75656.16;6246165;23;20004;-80
2023/12/02 07:20:21;;;;;;;0.20;0.20;;;;;;;16.89;93.88;75659.19;6250330;23;20000;-80
2023/12/02 07:22:46;;;;;;;0.20;0.20;;;;;;;17.00;93.30;75675.16;6250945;23;20023;-80
2023/12/02 07:25:15;;;;;;;0.20;0.20;;;;;;;16.86;93.39;75656.16;6250288;23;20313;-80
2023/12/02 07:27:40;;;;;;;0.20;0.20;;;;;;;17.02;92.93;75678.16;6250698;23;20067;-80
2023/12/02 07:30:09;;;;;;;0.20;0.20;;;;;;;17.22;93.07;75695.97;6223560;23;20004;-80
2023/12/02 07:32:35;;;;;;;0.20;0.20;;;;;;;17.08;93.15;75681.97;6250472;23;20001;-79
2023/12/02 07:35:00;;;;;;;0.20;0.20;;;;;;;17.11;93.57;75682.19;6249361;23;20083;-79
2023/12/02 07:37:26;;;;;;;0.20;0.20;;;;;;;17.15;93.54;75689.75;6249648;23;20340;-79
2023/12/02 07:39:52;;;;;;;0.20;0.20;;;;;;;17.32;93.44;75712.38;6248392;23;20000;-79
2023/12/02 07:42:17;;;;;;;0.20;0.20;;;;;;;17.36;93.58;75714.38;6219036;23;20004;-79
2023/12/02 07:44:43;;;;;;;0.20;0.20;;;;;;;17.13;94.50;75687.38;6221137;23;20327;-79
2023/12/02 07:47:08;;;;;;;0.20;0.20;;;;;;;17.22;95.13;75700.97;6247643;23;20286;-79
2023/12/02 07:49:35;;;;;;;0.20;0.20;;;;;;;17.25;95.99;75702.38;6247910;23;20008;-81
2023/12/02 07:52:01;;;;;;;0.20;0.20;;;;;;;17.28;94.67;75708.16;6250148;23;20004;-80
2023/12/02 07:54:31;;;;;;;0.20;0.20;;;;;;;17.23;95.03;75702.75;6250573;23;20063;-82
2023/12/02 07:56:57;;;;;;;0.20;0.20;;;;;;;17.23;95.64;75697.19;6253494;23;20165;-80
2023/12/02 07:59:22;;;;;;;0.20;0.20;;;;;;;17.07;96.39;75686.34;6224692;23;20008;-80
2023/12/02 08:01:47;;;;;;;0.20;0.20;;;;;;;17.13;97.33;75690.16;6248793;23;20008;-79
2023/12/02 08:04:13;;;;;;;0.20;0.20;;;;;;;17.20;97.82;75696.34;6249157;23;20367;-80
2023/12/02 08:06:39;;;;;;;0.20;0.20;;;;;;;17.03;98.25;75675.97;6248983;23;20337;-79
2023/12/02 08:09:05;;;;;;;0.20;0.20;;;;;;;17.08;98.33;75681.97;6249859;23;20008;-80
2023/12/02 08:11:31;;;;;;;0.20;0.20;;;;;;;17.09;100.00;75683.16;6250081;23;20011;-80
2023/12/02 08:13:57;;;;;;;0.20;0.20;;;;;;;17.02;100.00;75671.97;6250849;23;20000;-80
2023/12/02 08:16:23;;;;;;;0.20;0.20;;;;;;;16.98;100.00;75670.56;6248251;23;20004;-80
2023/12/02 08:18:48;;;;;;;0.20;0.20;;;;;;;16.94;100.00;75668.56;6249727;23;20015;-80
2023/12/02 08:21:14;;;;;;;0.20;0.20;;;;;;;17.01;100.00;75676.97;6251708;22;20066;-80
2023/12/02 08:23:39;;;;;;;0.20;0.20;;;;;;;17.08;100.00;75681.97;6251194;23;20004;-80
2023/12/02 08:26:05;;;;;;;0.20;0.20;;;;;;;17.07;100.00;75686.34;6224978;23;20008;-80
2023/12/02 08:28:30;;;;;;;0.20;0.20;;;;;;;17.14;100.00;75686.38;6251025;23;20008;-80
2023/12/02 08:30:56;;;;;;;0.20;0.20;;;;;;;17.13;100.00;75690.16;6251158;23;20089;-79
2023/12/02 08:33:21;;;;;;;0.20;0.20;;;;;;;17.05;100.00;75678.38;6249388;23;20432;-79
2023/12/02 08:35:47;;;;;;;0.20;0.20;;;;;;;17.11;100.00;75682.78;6250969;23;20027;-79
2023/12/02 08:38:12;;;;;;;0.20;0.20;;;;;;;17.03;100.00;75678.75;6225362;23;20043;-80
2023/12/02 08:40:39;;;;;;;0.20;0.20;;;;;;;16.87;100.00;75656.78;6252165;23;20016;-80
2023/12/02 08:43:05;;;;;;;0.20;0.20;;;;;;;17.10;100.00;75683.75;6251761;23;20028;-80
2023/12/02 08:45:30;;;;;;;0.20;0.20;;;;;;;17.15;100.00;75693.19;6249189;23;20055;-79
2023/12/02 08:47:56;;;;;;;0.20;0.20;;;;;;;16.87;100.00;75660.16;6251576;23;20062;-80
2023/12/02 08:50:21;;;;;;;0.20;0.20;;;;;;;16.91;100.00;75664.97;6249441;23;20004;-79
2023/12/02 08:52:47;;;;;;;0.20;0.20;;;;;;;16.96;100.00;75667.56;6223430;23;20398;-80
2023/12/02 08:55:12;;;;;;;0.20;0.20;;;;;;;16.95;100.00;75669.16;6251590;23;20004;-80
2023/12/02 08:57:37;;;;;;;0.20;0.20;;;;;;;16.77;100.00;75645.97;6249836;23;20061;-80
2023/12/02 09:00:04;;;;;;;0.20;0.20;;;;;;;16.80;100.00;75651.16;6250580;23;20004;-79
2023/12/02 09:02:31;;;;;;;0.20;0.20;;;;;;;16.75;100.00;75643.56;6250672;23;20004;-79
2023/12/02 09:04:57;;;;;;;0.20;0.20;;;;;;;16.65;100.00;75634.34;6223368;23;20026;-79
2023/12/02 09:07:23;;;;;;;0.20;0.20;;;;;;;16.69;100.00;75632.97;6223015;23;20004;-79
2023/12/02 09:09:49;;;;;;;0.20;0.20;;;;;;;16.78;100.00;75646.59;6250686;23;20008;-80
2023/12/02 09:12:14;;;;;;;0.20;0.20;;;;;;;16.71;100.00;75635.38;6248842;23;20004;-79
2023/12/02 09:14:40;;;;;;;0.20;0.20;;;;;;;16.73;100.00;75638.41;6251304;23;20095;-79
2023/12/02 09:17:48;;;;;;;0.20;0.20;;;;;;;16.81;100.00;75646.78;6250482;23;20339;-80
2023/12/02 09:20:47;;;;;;;0.20;0.20;;;;;;;16.89;100.00;75656.38;6242450;22;20020;-80
2023/12/02 09:23:15;;;;;;;0.20;0.20;;;;;;;16.93;100.00;75663.97;6248739;23;20321;-79
2023/12/02 09:25:41;;;;;;;0.20;0.20;;;;;;;16.96;100.00;75665.38;6221511;23;20004;-80
2023/12/02 09:28:11;;;;;;;0.20;0.20;;;;;;;16.96;100.00;75668.16;6250775;23;20340;-80
2023/12/02 09:30:40;;;;;;;0.20;0.20;;;;;;;16.84;100.00;75647.59;6222800;23;20035;-80
2023/12/02 09:33:07;;;;;;;0.20;0.20;;;;;;;17.01;100.00;75676.97;6248575;23;20323;-80
2023/12/02 09:35:33;;;;;;;0.20;0.20;;;;;;;17.04;100.00;75677.16;6248979;23;20094;-79
2023/12/02 09:38:03;;;;;;;0.20;0.20;;;;;;;16.91;100.00;75661.56;6249451;23;19996;-80
2023/12/02 09:40:55;;;;;;;0.20;0.20;;;;;;;16.94;100.00;75662.38;6249015;23;20317;-79
2023/12/02 09:43:29;;;;;;;0.20;0.20;;;;;;;17.07;100.00;75680.78;6248201;23;20065;-79
2023/12/02 09:45:55;;;;;;;0.20;0.20;;;;;;;17.18;99.12;75696.75;6250770;23;20000;-80
2023/12/02 09:48:24;;;;;;;0.20;0.20;;;;;;;17.10;98.53;75684.38;6250172;23;20002;-80
2023/12/02 09:51:12;;;;;;;0.20;0.20;;;;;;;17.14;97.49;75688.56;6223593;23;20070;-80
2023/12/02 09:54:18;;;;;;;0.20;0.20;;;;;;;17.18;95.90;75693.97;6251038;23;20004;-80
2023/12/02 09:56:56;;;;;;;0.20;0.20;;;;;;;17.06;94.82;75682.38;6249552;23;20348;-79
2023/12/02 09:59:42;;;;;;;0.20;0.20;;;;;;;17.25;93.72;75704.56;6248999;23;20004;-79
2023/12/02 10:02:24;;;;;;;0.20;0.20;;;;;;;17.33;93.83;75710.78;6219411;23;20306;-80
2023/12/02 10:05:10;;;;;;;0.20;0.20;;;;;;;17.26;94.33;75706.38;6246399;23;20451;-79
2023/12/02 10:08:08;;;;;;;0.20;0.20;;;;;;;17.50;93.44;75734.56;6218558;23;20022;-80
2023/12/02 10:11:07;;;;;;;0.20;0.20;;;;;;;17.57;93.93;75741.75;6218946;23;20009;-79
2023/12/02 10:13:46;;;;;;;0.20;0.20;;;;;;;17.56;94.72;75735.56;6246486;23;20007;-79
2023/12/02 10:16:20;;;;;;;0.20;0.20;;;;;;;17.64;94.62;75747.97;6247035;23;19996;-79
2023/12/02 10:18:51;;;;;;;;;;;;;;;17.60;94.95;75743.19;6246724;23;20015;-79
2023/12/02 10:21:20;;;;;;;0.20;0.20;;;;;;;17.45;94.70;75725.16;6245296;22;19911;-80
2023/12/02 10:23:45;;;;;;;0.20;0.20;;;;;;;17.63;94.12;75744.00;6245711;23;20007;-79
2023/12/02 10:26:38;;;;;;;0.20;0.20;;;;;;;17.66;94.24;75750.38;6243486;23;20008;-80
2023/12/02 10:29:35;;;;;;;0.20;0.20;;;;;;;17.73;93.47;75758.19;6245662;23;20004;-79
2023/12/02 10:32:25;;;;;;;0.20;0.20;;;;;;;17.71;94.34;75759.19;6245919;23;20030;-79
2023/12/02 10:34:56;;;;;;;0.20;0.20;;;;;;;17.74;95.03;75757.22;6245748;23;20049;-80
2023/12/02 10:37:30;;;;;;;0.20;0.20;;;;;;;17.76;95.79;75765.19;6245896;23;20000;-79
2023/12/02 10:39:58;;;;;;;0.20;0.20;;;;;;;17.54;97.05;75733.78;6248298;23;20004;-79
2023/12/02 10:42:29;;;;;;;0.30;0.30;;;;;;;17.72;98.22;75760.41;6250515;23;20028;-79
2023/12/02 10:45:15;;;;;;;0.20;0.20;;;;;;;17.68;100.00;75752.16;6251613;23;20070;-80
2023/12/02 10:47:44;;;;;;;0.20;0.20;;;;;;;17.63;100.00;75749.59;6247450;23;20015;-79
2023/12/02 10:50:11;;;;;;;0.20;0.20;;;;;;;17.60;100.00;75745.38;6246124;23;20081;-79
2023/12/02 10:52:38;;;;;;;0.20;0.20;;;;;;;17.56;100.00;75735.56;6246879;23;20007;-78
2023/12/02 10:55:05;;;;;;;0.20;0.20;;;;;;;17.56;100.00;75735.56;6245317;23;20066;-79
2023/12/02 10:57:32;;;;;;;0.20;0.20;;;;;;;17.45;100.00;75722.38;6245688;23;20047;-78
2023/12/02 11:00:12;;;;;;;0.20;0.20;;;;;;;17.46;100.00;75726.38;6245342;23;20004;-80
2023/12/02 11:02:40;;;;;;;0.20;0.20;;;;;;;17.50;100.00;75728.38;6243841;23;20394;-80
2023/12/02 11:05:18;;;;;;;0.20;0.20;;;;;;;17.46;100.00;75726.38;6244173;23;20070;-79
2023/12/02 11:07:49;;;;;;;0.20;0.20;;;;;;;17.53;100.00;75737.59;6245499;23;20004;-79
2023/12/02 11:10:23;;;;;;;0.20;0.20;;;;;;;17.44;100.00;75726.78;6243513;23;20099;-79
2023/12/02 11:12:58;;;;;;;0.20;0.20;;;;;;;17.40;100.00;75721.97;6245157;23;19996;-79
2023/12/02 11:15:24;;;;;;;0.20;0.20;;;;;;;17.23;100.00;75699.38;6218449;23;20011;-80
2023/12/02 11:18:05;;;;;;;0.20;0.20;;;;;;;17.42;100.00;75718.78;6244995;23;20000;-80
2023/12/02 11:21:01;;;;;;;0.20;0.20;;;;;;;17.45;100.00;75722.38;6244285;22;20015;-79
2023/12/02 11:23:46;;;;;;;0.20;0.20;;;;;;;17.21;100.00;75694.78;6218298;23;20394;-80
2023/12/02 11:26:23;;;;;;;0.20;0.20;;;;;;;17.24;100.00;75701.16;6218658;23;20000;-79
2023/12/02 11:29:15;;;;;;;0.20;0.20;;;;;;;17.45;100.00;75722.97;6243522;23;20016;-79
2023/12/02 11:32:07;;;;;;;0.20;0.20;;;;;;;17.44;100.00;75723.97;6245172;23;20011;-79
2023/12/02 11:34:55;;;;;;;0.20;0.20;;;;;;;17.42;100.00;75719.38;6244050;23;20386;-80